createdAt,value
2023-06-19T00:01:02.625Z,31.73
2023-06-19T00:03:30.965Z,31.67
2023-06-19T00:05:59.227Z,22.50
2023-06-19T00:08:27.779Z,32.00
2023-06-19T00:10:56.659Z,32.90
2023-06-19T00:15:29.936Z,28.88
2023-06-19T00:18:00.175Z,26.38
2023-06-19T00:20:28.681Z,27.80
2023-06-19T00:22:56.952Z,22.35
2023-06-19T00:25:25.431Z,22.77
2023-06-19T00:27:53.987Z,16.73
2023-06-19T00:30:22.709Z,19.73
2023-06-19T00:32:51.332Z,22.63
2023-06-19T00:35:19.697Z,23.52
2023-06-19T00:37:49.216Z,27.58
2023-06-19T00:40:34.885Z,28.52
2023-06-19T00:43:03.649Z,27.85
2023-06-19T00:45:32.359Z,40.47
2023-06-19T00:48:02.127Z,29.75
2023-06-19T00:50:31.599Z,21.80
2023-06-19T00:53:01.374Z,24.30
2023-06-19T00:55:34.018Z,22.27
2023-06-19T00:58:03.483Z,31.60
2023-06-19T01:00:31.846Z,32.80
2023-06-19T01:03:00.835Z,33.75
2023-06-19T01:05:30.965Z,31.05
2023-06-19T01:08:05.326Z,25.88
2023-06-19T01:10:43.247Z,29.58
2023-06-19T01:13:19.966Z,81.55
2023-06-19T01:15:49.609Z,53.40
2023-06-19T01:18:18.248Z,68.72
2023-06-19T01:20:47.359Z,118.13
2023-06-19T01:23:15.759Z,114.00
2023-06-19T01:25:44.292Z,84.93
2023-06-19T01:28:14.210Z,55.92
2023-06-19T01:30:44.074Z,40.92
2023-06-19T01:33:22.303Z,37.63
2023-06-19T01:35:52.177Z,38.25
2023-06-19T01:38:25.392Z,38.45
2023-06-19T01:40:56.326Z,22.50
2023-06-19T01:43:26.607Z,34.58
2023-06-19T01:45:55.082Z,45.00
2023-06-19T01:48:23.512Z,48.28
2023-06-19T01:50:52.611Z,27.10
2023-06-19T01:53:23.748Z,51.03
2023-06-19T01:55:52.297Z,27.07
2023-06-19T01:58:20.661Z,28.58
2023-06-19T02:00:48.998Z,40.85
2023-06-19T02:03:18.436Z,38.90
2023-06-19T02:05:47.076Z,30.48
2023-06-19T02:08:15.367Z,37.58
2023-06-19T02:10:43.837Z,39.03
2023-06-19T02:13:12.246Z,34.40
2023-06-19T02:15:41.113Z,31.15
2023-06-19T02:18:11.045Z,34.78
2023-06-19T02:20:39.443Z,35.00
2023-06-19T02:23:07.876Z,35.70
2023-06-19T02:25:36.164Z,22.77
2023-06-19T02:28:04.664Z,30.70
2023-06-19T02:30:33.109Z,31.38
2023-06-19T02:33:01.592Z,36.75
2023-06-19T02:35:30.218Z,32.22
2023-06-19T02:37:58.514Z,25.95
2023-06-19T02:40:27.073Z,31.33
2023-06-19T02:42:55.488Z,34.78
2023-06-19T02:45:24.025Z,43.53
2023-06-19T02:47:52.260Z,36.80
2023-06-19T02:50:20.883Z,31.75
2023-06-19T02:52:49.389Z,32.60
2023-06-19T02:55:18.006Z,32.17
2023-06-19T02:57:46.257Z,32.03
2023-06-19T03:00:15.067Z,32.10
2023-06-19T03:02:45.186Z,29.27
2023-06-19T03:05:14.779Z,32.25
2023-06-19T03:07:44.063Z,36.45
2023-06-19T03:10:12.606Z,26.63
2023-06-19T03:12:41.291Z,17.85
2023-06-19T03:15:10.822Z,21.30
2023-06-19T03:17:45.855Z,20.20
2023-06-19T03:20:15.045Z,19.48
2023-06-19T03:22:50.691Z,24.40
2023-06-19T03:25:19.319Z,23.48
2023-06-19T03:27:48.596Z,19.35
2023-06-19T03:30:17.169Z,15.55
2023-06-19T03:32:45.683Z,18.25
2023-06-19T03:35:25.305Z,20.77
2023-06-19T03:37:53.664Z,18.48
2023-06-19T03:40:22.693Z,22.80
2023-06-19T03:42:52.903Z,19.42
2023-06-19T03:45:21.615Z,20.17
2023-06-19T03:47:50.127Z,18.60
2023-06-19T03:50:21.415Z,19.73
2023-06-19T03:52:52.872Z,25.83
2023-06-19T03:55:21.996Z,17.85
2023-06-19T03:57:51.479Z,14.82
2023-06-19T04:00:20.196Z,20.95
2023-06-19T04:02:51.722Z,19.27
2023-06-19T04:05:21.019Z,13.10
2023-06-19T04:07:49.526Z,15.50
2023-06-19T04:10:18.304Z,14.98
2023-06-19T04:12:46.804Z,19.73
2023-06-19T04:15:15.533Z,13.98
2023-06-19T04:17:43.837Z,16.90
2023-06-19T04:20:13.023Z,14.13
2023-06-19T04:22:44.833Z,16.02
2023-06-19T04:25:13.410Z,18.70
2023-06-19T04:27:41.730Z,15.98
2023-06-19T04:30:10.372Z,23.63
2023-06-19T04:32:39.085Z,23.20
2023-06-19T04:35:11.651Z,26.88
2023-06-19T04:37:40.290Z,24.48
2023-06-19T04:40:09.082Z,22.33
2023-06-19T04:42:37.566Z,25.98
2023-06-19T04:45:06.255Z,21.98
2023-06-19T04:47:47.816Z,25.05
2023-06-19T04:50:21.134Z,32.67
2023-06-19T04:52:49.918Z,22.85
2023-06-19T04:55:18.332Z,23.38
2023-06-19T04:57:46.588Z,25.98
2023-06-19T05:00:15.394Z,22.73
2023-06-19T05:02:43.827Z,20.70
2023-06-19T05:05:12.515Z,18.00
2023-06-19T05:07:41.255Z,21.85
2023-06-19T05:10:10.153Z,20.45
2023-06-19T05:12:38.508Z,28.55
2023-06-19T05:15:07.656Z,24.77
2023-06-19T05:17:36.293Z,23.67
2023-06-19T05:20:05.040Z,15.80
2023-06-19T05:22:33.512Z,31.20
2023-06-19T05:25:02.363Z,32.33
2023-06-19T05:27:30.890Z,29.10
2023-06-19T05:29:59.282Z,30.83
2023-06-19T05:32:27.813Z,24.30
2023-06-19T05:34:56.139Z,25.45
2023-06-19T05:37:24.523Z,26.33
2023-06-19T05:39:52.958Z,30.77
2023-06-19T05:42:21.390Z,27.15
2023-06-19T05:44:49.829Z,18.65
2023-06-19T05:47:18.318Z,24.17
2023-06-19T05:49:46.863Z,30.65
2023-06-19T05:52:15.358Z,32.97
2023-06-19T05:54:43.793Z,24.08
2023-06-19T05:57:12.071Z,28.75
2023-06-19T05:59:40.533Z,34.83
2023-06-19T06:02:09.125Z,27.00
2023-06-19T06:04:37.627Z,28.10
2023-06-19T06:07:06.302Z,23.98
2023-06-19T06:09:34.704Z,35.90
2023-06-19T06:12:03.339Z,36.22
2023-06-19T06:14:32.317Z,37.30
2023-06-19T06:17:01.499Z,32.55
2023-06-19T06:19:31.598Z,23.17
2023-06-19T06:22:01.749Z,30.33
2023-06-19T06:24:30.397Z,31.90
2023-06-19T06:26:58.785Z,30.25
2023-06-19T06:29:27.627Z,20.27
2023-06-19T06:32:08.526Z,26.15
2023-06-19T06:34:37.178Z,25.75
2023-06-19T06:39:08.013Z,24.77
2023-06-19T06:41:36.590Z,24.25
2023-06-19T06:44:07.305Z,31.08
2023-06-19T06:46:35.741Z,23.17
2023-06-19T06:49:04.058Z,28.35
2023-06-19T06:51:32.485Z,27.83
2023-06-19T06:54:01.124Z,25.25
2023-06-19T06:56:29.643Z,30.52
2023-06-19T06:58:57.978Z,20.67
2023-06-19T07:01:26.615Z,23.88
2023-06-19T07:03:55.681Z,27.40
2023-06-19T07:06:24.259Z,20.63
2023-06-19T07:08:52.903Z,21.48
2023-06-19T07:11:21.261Z,17.45
2023-06-19T07:13:49.472Z,23.20
2023-06-19T07:16:18.054Z,22.25
2023-06-19T07:18:46.248Z,21.00
2023-06-19T07:21:15.805Z,25.08
2023-06-19T07:23:47.214Z,29.67
2023-06-19T07:26:16.040Z,28.88
2023-06-19T07:28:44.418Z,31.33
2023-06-19T07:31:12.878Z,38.13
2023-06-19T07:33:41.270Z,31.10
2023-06-19T07:36:09.760Z,35.40
2023-06-19T07:38:38.242Z,36.28
2023-06-19T07:41:06.646Z,32.65
2023-06-19T07:43:34.990Z,36.25
2023-06-19T07:46:03.903Z,37.38
2023-06-19T07:48:32.458Z,25.27
2023-06-19T07:51:00.903Z,30.70
2023-06-19T07:53:29.328Z,26.75
2023-06-19T07:55:57.805Z,29.23
2023-06-19T07:58:26.205Z,24.33
2023-06-19T08:00:54.728Z,32.20
2023-06-19T08:03:23.250Z,36.83
2023-06-19T08:05:54.716Z,28.52
2023-06-19T08:08:23.410Z,30.55
2023-06-19T08:10:51.889Z,26.88
2023-06-19T08:13:21.817Z,33.72
2023-06-19T08:15:50.279Z,34.50
2023-06-19T08:18:18.643Z,29.85
2023-06-19T08:20:47.129Z,19.25
2023-06-19T08:23:15.595Z,28.25
2023-06-19T08:25:44.020Z,20.85
2023-06-19T08:28:12.537Z,23.02
2023-06-19T08:30:40.919Z,26.20
2023-06-19T08:33:09.378Z,17.98
2023-06-19T08:35:37.957Z,16.77
2023-06-19T08:38:06.723Z,17.65
2023-06-19T08:40:35.501Z,22.50
2023-06-19T08:43:06.790Z,21.33
2023-06-19T08:45:35.417Z,18.07
2023-06-19T08:48:05.208Z,17.48
2023-06-19T08:50:40.655Z,19.17
2023-06-19T08:53:09.017Z,19.95
2023-06-19T08:55:37.544Z,16.13
2023-06-19T08:58:11.580Z,20.38
2023-06-19T09:00:41.373Z,14.75
2023-06-19T09:03:14.219Z,16.42
2023-06-19T09:05:46.779Z,14.60
2023-06-19T09:08:16.388Z,15.48
2023-06-19T09:10:45.312Z,19.63
2023-06-19T09:13:16.746Z,22.98
2023-06-19T09:15:45.452Z,19.85
2023-06-19T09:18:13.948Z,19.48
2023-06-19T09:20:44.421Z,16.67
2023-06-19T09:23:14.556Z,16.92
2023-06-19T09:25:48.651Z,20.52
2023-06-19T09:28:24.757Z,13.55
2023-06-19T09:30:58.119Z,16.23
2023-06-19T09:33:31.566Z,12.45
2023-06-19T09:36:02.253Z,8.27
2023-06-19T09:38:34.356Z,10.32
2023-06-19T09:41:05.248Z,11.73
2023-06-19T09:43:43.890Z,9.38
2023-06-19T09:46:15.931Z,10.20
2023-06-19T09:48:47.237Z,11.30
2023-06-19T09:51:39.501Z,12.93
2023-06-19T09:54:09.322Z,21.10
2023-06-19T09:56:41.101Z,17.23
2023-06-19T09:59:10.756Z,29.95
2023-06-19T10:01:39.904Z,23.00
2023-06-19T10:04:10.062Z,19.92
2023-06-19T10:06:48.897Z,22.50
2023-06-19T10:09:19.434Z,11.32
2023-06-19T10:11:52.789Z,10.85
2023-06-19T10:14:24.997Z,12.98
2023-06-19T10:16:53.867Z,10.75
2023-06-19T10:19:24.120Z,15.07
2023-06-19T10:21:56.055Z,15.25
2023-06-19T10:27:05.456Z,17.30
2023-06-19T10:30:01.468Z,21.77
2023-06-19T10:32:32.393Z,68.50
2023-06-19T10:35:01.165Z,39.08
2023-06-19T10:37:39.100Z,19.05
2023-06-19T10:40:10.143Z,26.70
2023-06-19T10:42:42.506Z,20.23
2023-06-19T10:45:12.740Z,15.25
2023-06-19T10:47:42.108Z,22.63
2023-06-19T10:50:15.784Z,23.77
2023-06-19T10:52:47.964Z,20.35
2023-06-19T10:55:16.913Z,23.70
2023-06-19T10:57:49.330Z,19.35
2023-06-19T11:00:28.682Z,24.92
2023-06-19T11:03:01.191Z,18.30
2023-06-19T11:05:30.636Z,27.48
2023-06-19T11:08:01.526Z,21.00
2023-06-19T11:10:31.329Z,20.25
2023-06-19T11:13:01.009Z,20.20
2023-06-19T11:15:38.685Z,19.42
2023-06-19T11:18:07.329Z,26.33
2023-06-19T11:20:53.688Z,20.27
2023-06-19T11:23:32.406Z,20.73
2023-06-19T11:26:07.833Z,19.40
2023-06-19T11:28:38.293Z,16.05
2023-06-19T11:31:06.840Z,12.77
2023-06-19T11:33:35.350Z,16.42
2023-06-19T11:36:04.109Z,14.27
2023-06-19T11:38:33.347Z,15.40
2023-06-19T11:41:05.139Z,13.18
2023-06-19T11:43:34.686Z,13.68
2023-06-19T11:46:09.887Z,13.75
2023-06-19T11:48:39.524Z,19.75
2023-06-19T11:51:08.132Z,14.05
2023-06-19T11:53:37.158Z,15.93
2023-06-19T11:56:06.125Z,10.77
2023-06-19T11:58:34.743Z,10.82
2023-06-19T12:01:03.394Z,15.63
2023-06-19T12:03:31.812Z,13.93
2023-06-19T12:06:00.663Z,11.05
2023-06-19T12:08:29.196Z,21.88
2023-06-19T12:10:57.577Z,16.70
2023-06-19T12:13:26.183Z,19.13
2023-06-19T12:15:54.845Z,26.58
2023-06-19T12:18:23.385Z,33.28
2023-06-19T12:20:51.861Z,28.00
2023-06-19T12:23:20.457Z,20.45
2023-06-19T12:25:48.918Z,27.65
2023-06-19T12:28:23.478Z,24.65
2023-06-19T12:30:51.949Z,24.45
2023-06-19T12:33:21.499Z,34.80
2023-06-19T12:35:50.344Z,28.65
2023-06-19T12:38:18.916Z,21.65
2023-06-19T12:40:48.806Z,24.45
2023-06-19T12:43:17.731Z,23.40
2023-06-19T12:45:46.193Z,22.02
2023-06-19T12:48:14.854Z,20.92
2023-06-19T12:50:43.413Z,28.25
2023-06-19T12:53:12.060Z,22.48
2023-06-19T12:55:52.547Z,20.35
2023-06-19T12:58:29.022Z,21.85
2023-06-19T13:00:57.880Z,24.48
2023-06-19T13:03:26.531Z,21.60
2023-06-19T13:05:55.321Z,22.48
2023-06-19T13:08:23.871Z,18.83
2023-06-19T13:10:52.384Z,20.17
2023-06-19T13:13:21.020Z,20.00
2023-06-19T13:15:49.594Z,20.33
2023-06-19T13:18:19.446Z,22.10
2023-06-19T13:20:48.160Z,15.65
2023-06-19T13:23:16.526Z,19.83
2023-06-19T13:25:45.318Z,15.70
2023-06-19T13:28:13.884Z,30.17
2023-06-19T13:30:42.849Z,28.63
2023-06-19T13:33:11.374Z,58.38
2023-06-19T13:35:39.785Z,27.55
2023-06-19T13:38:08.610Z,30.83
2023-06-19T13:40:37.309Z,23.83
2023-06-19T13:43:06.164Z,58.22
2023-06-19T13:49:54.234Z,20.95
2023-06-19T13:52:22.847Z,21.55
2023-06-19T13:54:52.740Z,15.95
2023-06-19T13:57:23.761Z,17.90
2023-06-19T13:59:52.546Z,20.77
2023-06-19T14:02:21.173Z,18.00
2023-06-19T14:04:49.727Z,23.85
2023-06-19T14:07:18.098Z,20.17
2023-06-19T14:09:46.838Z,21.73
2023-06-19T14:12:15.462Z,23.63
2023-06-19T14:14:44.157Z,21.35
2023-06-19T14:17:12.692Z,14.18
2023-06-19T14:19:40.960Z,14.27
2023-06-19T14:22:09.506Z,20.75
2023-06-19T14:24:38.128Z,13.90
2023-06-19T14:27:09.245Z,28.30
2023-06-19T14:29:37.968Z,22.13
2023-06-19T14:32:06.801Z,13.73
2023-06-19T14:34:35.160Z,16.63
2023-06-19T14:37:03.800Z,14.25
2023-06-19T14:39:35.911Z,15.93
2023-06-19T14:42:06.765Z,19.27
2023-06-19T14:44:35.828Z,18.67
2023-06-19T14:47:05.021Z,22.10
2023-06-19T14:49:36.515Z,19.17
2023-06-19T14:52:05.495Z,19.48
2023-06-19T14:54:33.788Z,30.25
2023-06-19T14:57:02.447Z,17.33
2023-06-19T14:59:32.398Z,19.65
2023-06-19T15:02:01.319Z,31.77
2023-06-19T15:04:29.898Z,24.60
2023-06-19T15:06:58.251Z,22.30
2023-06-19T15:09:27.140Z,21.92
2023-06-19T15:11:58.891Z,19.42
2023-06-19T15:14:30.190Z,24.42
2023-06-19T15:16:59.134Z,19.80
2023-06-19T15:19:30.843Z,16.13
2023-06-19T15:22:02.704Z,25.10
2023-06-19T15:24:31.534Z,34.30
2023-06-19T15:27:00.357Z,24.85
2023-06-19T15:29:28.826Z,20.15
2023-06-19T15:31:57.601Z,24.25
2023-06-19T15:34:26.586Z,37.58
2023-06-19T15:36:55.227Z,27.35
2023-06-19T15:39:31.320Z,17.67
2023-06-19T15:42:00.340Z,20.65
2023-06-19T15:44:28.839Z,22.63
2023-06-19T15:46:57.320Z,18.95
2023-06-19T15:49:26.274Z,18.88
2023-06-19T15:51:54.941Z,15.75
2023-06-19T15:54:23.527Z,21.55
2023-06-19T15:56:54.787Z,19.25
2023-06-19T15:59:24.453Z,12.35
2023-06-19T16:01:55.134Z,22.60
2023-06-19T16:04:25.233Z,17.87
2023-06-19T16:06:53.625Z,16.02
2023-06-19T16:09:22.166Z,14.20
2023-06-19T16:11:50.746Z,19.15
2023-06-19T16:14:19.333Z,21.55
2023-06-19T16:16:47.979Z,22.17
2023-06-19T16:19:18.438Z,17.52
2023-06-19T16:21:48.854Z,18.55
2023-06-19T16:24:18.557Z,23.33
2023-06-19T16:26:47.139Z,22.38
2023-06-19T16:29:15.636Z,14.57
2023-06-19T16:31:47.105Z,20.25
2023-06-19T16:34:17.581Z,29.48
2023-06-19T16:36:46.386Z,27.10
2023-06-19T16:39:14.924Z,28.00
2023-06-19T16:41:43.796Z,21.60
2023-06-19T16:44:12.449Z,17.77
2023-06-19T16:46:40.929Z,15.05
2023-06-19T16:49:09.741Z,30.23
2023-06-19T16:51:38.196Z,20.92
2023-06-19T16:54:06.680Z,33.65
2023-06-19T16:56:35.340Z,24.75
2023-06-19T16:59:03.868Z,41.03
2023-06-19T17:01:32.439Z,26.55
2023-06-19T17:04:01.191Z,20.33
2023-06-19T17:06:29.737Z,45.65
2023-06-19T17:08:58.640Z,44.13
2023-06-19T17:11:27.172Z,34.67
2023-06-19T17:13:56.161Z,35.25
2023-06-19T17:16:24.683Z,50.70
2023-06-19T17:18:53.523Z,40.90
2023-06-19T17:21:21.899Z,44.33
2023-06-19T17:23:51.916Z,27.23
2023-06-19T17:26:20.405Z,35.22
2023-06-19T17:28:49.058Z,27.35
2023-06-19T17:31:17.636Z,32.13
2023-06-19T17:33:46.125Z,33.50
2023-06-19T17:36:14.750Z,23.20
2023-06-19T17:38:43.182Z,47.40
2023-06-19T17:41:11.502Z,49.08
2023-06-19T17:43:39.981Z,38.50
2023-06-19T17:46:08.283Z,46.10
2023-06-19T17:48:39.340Z,39.42
2023-06-19T17:51:08.015Z,36.25
2023-06-19T17:53:36.389Z,30.73
2023-06-19T17:56:04.966Z,20.50
2023-06-19T17:58:33.394Z,45.17
2023-06-19T18:01:01.826Z,42.58
2023-06-19T18:03:30.301Z,33.00
2023-06-19T18:05:58.858Z,25.65
2023-06-19T18:08:27.281Z,34.10
2023-06-19T18:10:55.779Z,41.88
2023-06-19T18:13:24.509Z,33.15
2023-06-19T18:16:06.913Z,34.25
2023-06-19T18:18:40.665Z,39.45
2023-06-19T18:21:08.983Z,44.80
2023-06-19T18:23:37.479Z,48.13
2023-06-19T18:26:05.892Z,43.95
2023-06-19T18:28:34.745Z,64.20
2023-06-19T18:33:08.765Z,61.80
2023-06-19T18:35:37.471Z,27.70
2023-06-19T18:38:05.744Z,27.88
2023-06-19T18:40:34.244Z,36.03
2023-06-19T18:43:02.820Z,25.05
2023-06-19T18:45:31.292Z,36.42
2023-06-19T18:47:59.742Z,31.55
2023-06-19T18:50:28.293Z,29.80
2023-06-19T18:52:56.545Z,64.60
2023-06-19T18:55:24.973Z,37.00
2023-06-19T18:57:53.358Z,31.58
2023-06-19T19:00:21.964Z,29.50
2023-06-19T19:02:50.368Z,40.45
2023-06-19T19:05:19.303Z,27.27
2023-06-19T19:07:47.590Z,46.55
2023-06-19T19:10:15.966Z,40.97
2023-06-19T19:12:44.435Z,75.82
2023-06-19T19:15:12.827Z,69.22
2023-06-19T19:17:41.271Z,46.47
2023-06-19T19:20:10.470Z,31.23
2023-06-19T19:22:38.962Z,30.67
2023-06-19T19:25:07.627Z,31.33
2023-06-19T19:27:36.165Z,31.95
2023-06-19T19:30:05.436Z,29.85
2023-06-19T19:32:34.065Z,39.05
2023-06-19T19:35:02.508Z,27.33
2023-06-19T19:37:31.153Z,30.98
2023-06-19T19:40:00.450Z,43.33
2023-06-19T19:42:29.248Z,44.25
2023-06-19T19:44:57.808Z,30.27
2023-06-19T19:47:26.411Z,74.53
2023-06-19T19:49:54.881Z,28.48
2023-06-19T19:52:25.451Z,51.95
2023-06-19T19:54:54.603Z,35.38
2023-06-19T19:57:22.972Z,68.18
2023-06-19T19:59:51.355Z,41.78
2023-06-19T20:02:19.975Z,169.00
2023-06-19T20:04:48.646Z,70.57
2023-06-19T20:07:17.048Z,58.45
2023-06-19T20:09:45.682Z,52.03
2023-06-19T20:12:21.501Z,80.07
2023-06-19T20:14:51.048Z,55.33
2023-06-19T20:17:19.407Z,42.83
2023-06-19T20:19:48.006Z,45.40
2023-06-19T20:22:16.677Z,28.58
2023-06-19T20:24:45.362Z,37.35
2023-06-19T20:27:13.872Z,42.83
2023-06-19T20:29:42.481Z,35.20
2023-06-19T20:32:10.795Z,21.70
2023-06-19T20:34:39.424Z,27.85
2023-06-19T20:37:08.342Z,29.30
2023-06-19T20:39:36.833Z,41.65
2023-06-19T20:42:05.324Z,64.63
2023-06-19T20:44:34.014Z,36.83
2023-06-19T20:47:02.654Z,40.17
2023-06-19T20:49:31.060Z,32.67
2023-06-19T20:51:59.418Z,27.42
2023-06-19T20:54:27.828Z,30.05
2023-06-19T20:56:57.289Z,34.28
2023-06-19T20:59:25.759Z,38.03
2023-06-19T21:01:54.083Z,38.50
2023-06-19T21:04:22.525Z,24.60
2023-06-19T21:06:50.969Z,34.78
2023-06-19T21:09:19.443Z,27.75
2023-06-19T21:11:48.152Z,20.95
2023-06-19T21:14:17.176Z,26.52
2023-06-19T21:16:45.620Z,33.28
2023-06-19T21:19:14.138Z,29.08
2023-06-19T21:21:42.630Z,30.92
2023-06-19T21:24:11.319Z,38.70
2023-06-19T21:26:39.692Z,34.40
2023-06-19T21:29:08.525Z,34.97
2023-06-19T21:31:36.965Z,28.10
2023-06-19T21:34:05.566Z,27.73
2023-06-19T21:36:34.101Z,29.65
2023-06-19T21:39:02.533Z,29.52
2023-06-19T21:41:31.047Z,27.35
2023-06-19T21:43:59.730Z,31.95
2023-06-19T21:46:28.136Z,34.53
2023-06-19T21:48:56.655Z,35.05
2023-06-19T21:51:25.187Z,29.02
2023-06-19T21:53:53.663Z,32.25
2023-06-19T21:56:22.079Z,32.30
2023-06-19T21:58:50.672Z,26.55
2023-06-19T22:01:19.321Z,33.10
2023-06-19T22:03:47.783Z,30.38
2023-06-19T22:06:16.340Z,24.17
2023-06-19T22:08:44.535Z,29.70
2023-06-19T22:11:12.861Z,33.97
2023-06-19T22:13:41.222Z,26.50
2023-06-19T22:16:09.821Z,47.10
2023-06-19T22:18:38.431Z,52.03
2023-06-19T22:21:06.772Z,61.20
2023-06-19T22:23:35.249Z,35.15
2023-06-19T22:26:03.689Z,27.10
2023-06-19T22:28:32.264Z,31.52
2023-06-19T22:31:00.743Z,36.47
2023-06-19T22:33:29.501Z,34.13
2023-06-19T22:35:57.744Z,34.80
2023-06-19T22:38:26.149Z,32.45
2023-06-19T22:40:55.634Z,33.42
2023-06-19T22:43:24.131Z,42.08
2023-06-19T22:45:52.378Z,21.00
2023-06-19T22:48:20.913Z,23.60
2023-06-19T22:50:51.037Z,27.63
2023-06-19T22:53:19.417Z,22.80
2023-06-19T22:55:47.947Z,30.52
2023-06-19T22:58:16.342Z,35.85
2023-06-19T23:00:44.600Z,34.00
2023-06-19T23:03:13.072Z,30.17
2023-06-19T23:05:41.356Z,26.17
2023-06-19T23:08:09.746Z,48.28
2023-06-19T23:10:38.158Z,45.38
2023-06-19T23:13:06.383Z,29.48
2023-06-19T23:15:34.743Z,25.65
2023-06-19T23:18:04.125Z,25.90
2023-06-19T23:20:32.494Z,21.55
2023-06-19T23:23:00.907Z,25.13
2023-06-19T23:25:29.489Z,24.30
2023-06-19T23:27:57.839Z,25.42
2023-06-19T23:30:26.229Z,20.30
2023-06-19T23:32:54.692Z,23.70
2023-06-19T23:35:23.734Z,30.02
2023-06-19T23:37:52.632Z,20.67
2023-06-19T23:40:21.116Z,30.60
2023-06-19T23:42:49.448Z,30.45
2023-06-19T23:45:17.826Z,21.08
2023-06-19T23:47:46.189Z,21.77
2023-06-19T23:50:14.721Z,22.85
2023-06-19T23:52:44.626Z,20.70
2023-06-19T23:55:13.941Z,22.20
2023-06-19T23:57:42.281Z,22.48
